Timeline UpdatesTrip UpdatesNews PostsPvt Posts♥♥Travel TipsAdmin PostsConv PostsFollowed PostsChat RequestsBlog PostsPNR Posts

Disclaimer
Search
 
 
Sat Nov 1, 2014 05:59:33 ISTHomeTrainsΣChainsAtlasPNRForumGalleryNewsFAQTripsMembersLoginFeedback
No Recent News for this Train
Other Trains in the News **new
Latest...
Tr.No.17406 Adilabad -Tirupati Express is cancelled o­n 27.04.2014.
Sat Apr 26, 2014 (03:22PM)
⇐ Return Journey: Train# 17405

17406/Krishna Express

Time-Table HAS CHANGED.
Sep 03 2014 (11:11AM)
Change Departure Station:
Change Arrival Station:
Post a Train Travel TipPost a Train Travel Tip **new
Post a Comment/Question/Picture/VideoPost a Comment/Question/Picture/Video
Inaugural Run
Wed Oct 02, 1974
Pantry/Catering
✕ NO Pantry Car
✓ Catering Avbl
Loco/Rake Reversals
SC/Secunderabad Junction (10); MUE/Mudkhed Junction (4);
RSA - Rake Sharing
17405/17406/17409/17410 has RSA.
Rake/Coach Composition
Loco-SLR-GS-D6-D5-D4-D3-D2-D1-S2-S1-C1-B1-GS-GS-GS-GS-GS-SLR
Loco
ADB - SC: KZJ WDG-3A. SC - TPTY: LGD WAP4/7.
News    PNR    Forum    Time-Table    Availability    Fare Chart    Map    Arr/Dep History    Trips    Gallery    ΣChains    X/O    Timeline    
Travel Time: 22h 5m    55 halts    Distance: 1006 km    Avg Speed: 45 km/hr
Type: Mail/Express
Zone: SCR/South Central
Departs @ 23:20 (Avg 8m late)
Platform# 1
SMTWTFS
Bhokar/BOKR 
Arrives @ 21:25 +1 night (Avg 10m late)
Platform# 1
SMTWTFS
Tirupati Main/TPTY 

55 halts. 158 intermediate Stations between Bhokar and Tirupati Main

Show ALL intermediate Stations  Show Old Time-Table

#TrkCodeStation NameX/OArrivesAvgDepartsAvgHaltPFDay#KmSpeedElevZoneAddress
1|--|ADBAdilabad (3)  -20:45+211-141.880248mSCRAdilabad, Telangana
2|--|KNVTKinwat (2)  21:03 21:19+1621:04 21:20+181m11-96.563319mSCRKinwat, Maharashtra
3|--|BHBKBodhadi Bujrug  21:44 21:34+1921:45 21:35+191m--1-81.875357mSCRKinwat, Maharashtra
4|--|SHSKSahasrakund  22:14 21:59+2722:15 22:00+281m--1-51.749402mSCRNanded, Maharashtra
5|--|HEMHimayatnagar  22:29 22:19+2522:30 22:20+251m--1-36.137398mSCRNanded, Maharashtra
6|--|BOKRBhokar»  23:24 23:19+723:25 23:20+81m110.028460mSCRBhokar, Maharashtra
7|--|MUEMudkhed Junction (4)O↵¶00:05-200:15+810m2221.234378mSCRMudkhed, Maharashtra
8|--|UMRIUmri (1)X  00:49+000:50+51m1240.665381mSCRHuzur Sahib Nanded, Maharashtra
9|--|DABDharmabad (2)X  01:17+1601:18+191m1270.135354mSCRDegaon, Maharashtra
10|--|BSXBasar (2)X  01:35+1501:37+172m1279.953358mSCRDist Adilabad, Telangana
11|--|NZBNizamabad (3)  02:10+1802:15+235m12109.371384mSCRNizamabad, Telangana
12|--|KMCKamareddi (3)  03:00 02:59+3003:01+301 2m12161.267528mSCRNizamabad Dist., Telangana
13|--|AKEAkanapet (1)O  03:24+2903:25+301m12186.992566mSCRMedak District., Telangana
14|--|MZLMirzapalli (1)  03:32+3103:33+311m12197.743530mSCRMedak Dist., Telangana
15|-=|BMOBolarum (3)X  04:55+804:56+81m12256.327597mSCRSecunderabad, Telangana
16/-=|MJFMalkajgiri (3)X  05:19+105:20+21m22266.58535mSCRSecunderabad, Telangana
17|--|SCSecunderabad Junction (10)X05:45+1406:05+1520m62270.043539mSCRSecunderabad 500003, Telangana
18/==/MLYMoula Ali (2)X  06:13+2906:14+291m12275.757520mSCRSecunderabad, Telangana
19/==/CHZCharlapalli (2)  06:21+3306:22+341m22282.376523mSCRRangareddy Dist., Telangana
20/==/BGBhongir (3)X  06:49+3606:50+371m22316.397455mSCRNalgonda Dist., Telangana
21/==/RAGRaigir (2)X  06:54-06:55-1m22322.873415mSCRNalgonda, Telangana
22/==/ALERAler (2)X  07:08+4107:09+431m22338.672366mSCRNalgonda Dist., Telangana
23/==/PBPPembarti (2)  07:17+4407:18+451m22348.241382mSCRWarangal Dist., Telangana
24/==/ZNJangaon (2)  07:26+4607:27+481m22353.775380mSCRWarangal Dist., Telangana
25/==/RGPRaghunathpalli (2)  07:36+5107:37+511m22365.084357mSCRWarangal Dist., Telangana
26/==/GNPGhanpur (2)  07:49+5407:50+561m22381.743344mSCRWarangal Dist. / Enq Ph : 08711 220231, Telangana
27/==/KZJKazipet Junction (3)X  08:18+4408:20+492m22401.651292mSCRWarangal Dist., Telangana
28/==/WLWarangal (3)  08:32+1:0008:34+1:012m12411.874271mSCRWarangal., Telangana
29/==/NKDNekonda (2)  08:58+1:0508:59+1:051m12441.577236mSCRWarangal Dist., Telangana
30/==/KDMKesamudram (2)X  09:11+1:0709:12+1:071m12456.981223mSCRWarangal Dist., Telangana
31/==/MABDMahbubabad (2)  09:23+1:1209:24+1:131m12471.9107200mSCRWarangal Dist., Telangana
32/==/GLAGarla (2)X  09:35-09:36-1m12491.518156mSCRKhammam Dist., Telangana
33/==/DKJDornakal Junction (3)  09:52+1:0709:54+1:062m22496.392153mSCRWarangal District, Telangana
34/==/KMTKhammam (2)X  10:09+1:0310:11+1:032m12519.388118mSCRKhammam 507001, Telangana
35/==/BKLBona Kalu (2)  10:30+1:2410:31+1:241m12547.28597mSCRKhammam Dist., Telangana
36/==/MDRMadhira (2)  10:43+1:3110:44+1:311m12564.18461mSCRKhammam Dist., Telangana
37/==/YPErrupalem (2)X  10:55+1:4110:56+1:411m--2579.61857mSCRKhammam Dist., Telangana
38/==/KIKondapalli (2)XO  12:18+3112:20+322m22604.12735mSCRKondapalli, Andhra Pradesh
39/==/BZAVijayawada Junction (10)X  12:55+2813:15+2420m102619.74524mSCRVijayawada 520001, Andhra Pradesh
40/==/PVDPeddavadiapudi (3)  13:31+3013:32+301m--2631.66520mSCRKL University to NH 5, Andhra Pradesh
41/==/DIGDuggirala (3)X  13:41+3413:42+351m--2641.33616mSCRDuggirala, Andhra Pradesh
42/==/TELTenali Junction (5)  13:58+3214:00+332m32650.97716mSCRTel: 08644-227834, Andhra Pradesh
43/==/TSRTsunduru (3)  14:09+3514:10+351m--2662.55712mSCRTsunduru, Andhra Pradesh
44/==/NDONidubrolu (3)  14:21+3614:22+381m--2673.0699mSCRNidubrolu, Andhra Pradesh
45/==/BPPBapatla (3)X  14:40+3814:41+401m--2693.58210mSCRBapatla, Andhra Pradesh
46/==/CLXChirala (4)  14:52+4614:53+481m--2708.6598mSCRChirala, Andhra Pradesh
47/==/VTMVetapalem (3)X  15:01+5115:02+531m--2716.5758mSCRVetapalem, Andhra Pradesh
48/==/CJMChinnaganjam (3)  15:12+5015:13+521m--2728.9779mSCRChinna Ganjam, Andhra Pradesh
49/==/ANBAmmanabrolu (3)X  15:24+5315:25+551m--2743.14316mSCRAmmanabrolu, Andhra Pradesh
50/==/OGLOngole (3)  15:46+5315:48+562m32758.07012mSCROngole, Andhra Pradesh
51/==/TNRTanguturu (3)  16:04+1:0116:05+1:011m12776.67210mSCRTanguturu, Andhra Pradesh
52/==/SKMSingarayakonda (2)X  16:13+1:0016:14+1:011m22786.29926mSCRSingarayakonda, Andhra Pradesh
53/==/KVZKavali (4)X  16:37+2716:39+272m22824.08221mSCRKavali, Andhra Pradesh
54/==/BTTRBitragunta (2)X  16:51+016:52+01m22840.44515mSCRBitragunta, Andhra Pradesh
55/==/NLRNellore (4)  17:38+2617:40+262m32874.74821mSCRNellore, Andhra Pradesh
56/==/VDEVedayapalem (2)XO  17:49+2517:50+251m22882.01927mSCRNellore, Andhra Pradesh
57/==/GDRGudur Junction (3)  19:08 19:28+919:10 19:30+92m32913.26819mSCRGudur, Andhra Pradesh
58/==/VDDVendodu (2)X  19:27 19:47+2419:28 19:48+261m--2932.49955mSCRNellore, Andhra Pradesh
59/==/VKIVenkatagiri (3)  19:40 19:58+3219:41 20:00+341 2m22948.98277mSCRNellore District, Andhra Pradesh
60/==/KHTSri Kalahasti (2)X  20:01 20:18+3720:02 20:20+381 2m12973.47068mSCRChittoor District, Andhra Pradesh
61/==/RURenigunta Junction (5)O  20:35 20:40+3020:40 20:45+305m--2996.615113mSCRChittoor District, Andhra Pradesh
62/==/TPTYTirupati Main (5)•  21:25+10-121006.5-150mSCRChittoor Distt, Andhra Pradesh
Scroll to Top
Scroll to Bottom